Terminal Aerodrome Forecast
Issued by NWS

Home | Current Version | Previous Version | Text Only | Print | Product List | Glossary On
Versions: 1 2 3 4 5 6 7 8 9 10 11 12 13 14
000
FTUS43 KGRB 201500 AAA
TAFMTW
TAF AMD
KMTW 201514Z 2015/2112 VRB03KT P6SM OVC035
      TEMPO 2015/2018 SCT035 OVC070
     FM201800 18004KT P6SM BKN035 BKN070
     FM210300 19004KT 4SM BR OVC025=

USA.gov is the U.S. government's official web portal to all federal, state and local government web resources and services.